Time,TemperatureF,DewpointF,PressureIn,WindDirection,WindDirectionDegrees,WindSpeedMPH,WindSpeedGustMPH,Humidity,HourlyPrecipIn,Conditions,Clouds,dailyrainin,SolarRadiationWatts/m^2,SoftwareType,DateUTC
2013-04-01 00:00:00,40.6,29.4,29.76,NW,315,8.0,8.0,64,0.00,,,0.00,0,Wunderground v.1.15,2013-04-01 04:00:00,
2013-04-01 00:01:00,40.6,29.4,29.76,NNE,26,8.0,21.0,64,0.00,,,0.00,0,Wunderground v.1.15,2013-04-01 04:01:00,
2013-04-01 00:05:00,40.5,29.3,29.76,NW,326,7.0,21.0,64,0.00,,,0.00,0,Wunderground v.1.15,2013-04-01 04:05:00,
2013-04-01 00:06:00,40.5,29.3,29.76,NW,312,7.0,21.0,64,0.00,,,0.00,0,Wunderground v.1.15,2013-04-01 04:06:00,
2013-04-01 00:12:00,40.4,29.6,29.76,NW,310,7.0,21.0,65,0.00,,,0.00,0,Wunderground v.1.15,2013-04-01 04:12:00,
2013-04-01 00:16:00,40.3,29.8,29.76,WNW,299,7.0,21.0,66,0.00,,,0.00,0,Wunderground v.1.15,2013-04-01 04:16:00,
2013-04-01 00:23:00,40.0,29.6,29.76,North,355,6.0,21.0,66,0.00,,,0.00,0,Wunderground v.1.15,2013-04-01 04:23:00,
2013-04-01 00:28:00,40.0,29.2,29.76,WSW,252,6.0,21.0,65,0.00,,,0.00,0,Wunderground v.1.15,2013-04-01 04:28:00,
2013-04-01 00:34:00,39.8,28.6,29.76,West,272,6.0,21.0,64,0.00,,,0.00,0,Wunderground v.1.15,2013-04-01 04:34:00,
2013-04-01 00:39:00,39.6,28.8,29.76,NW,322,5.0,21.0,65,0.00,,,0.00,0,Wunderground v.1.15,2013-04-01 04:39:00,
2013-04-01 00:44:00,39.5,28.7,29.76,NW,304,5.0,21.0,65,0.00,,,0.00,0,Wunderground v.1.15,2013-04-01 04:44:00,
2013-04-01 00:50:00,39.3,28.5,29.76,WNW,301,5.0,5.0,65,0.00,,,0.00,0,Wunderground v.1.15,2013-04-01 04:50:00,
2013-04-01 00:55:00,39.2,28.4,29.76,West,259,5.0,21.0,65,0.00,,,0.00,0,Wunderground v.1.15,2013-04-01 04:55:00,
2013-04-01 01:00:00,39.2,28.4,29.76,WNW,290,5.0,7.0,65,0.00,,,0.00,0,Wunderground v.1.15,2013-04-01 05:00:00,
2013-04-01 01:06:00,39.1,28.3,29.76,NW,313,5.0,13.0,65,0.00,,,0.00,0,Wunderground v.1.15,2013-04-01 05:06:00,
2013-04-01 01:14:00,38.9,28.5,29.76,WNW,291,5.0,13.0,66,0.00,,,0.00,0,Wunderground v.1.15,2013-04-01 05:14:00,
2013-04-01 01:19:00,38.7,28.7,29.76,WNW,301,4.0,13.0,67,0.00,,,0.00,0,Wunderground v.1.15,2013-04-01 05:19:00,
2013-04-01 01:24:00,38.5,28.5,29.77,West,271,3.0,13.0,67,0.00,,,0.00,0,Wunderground v.1.15,2013-04-01 05:24:00,
2013-04-01 01:30:00,38.3,28.3,29.77,West,276,4.0,13.0,67,0.00,,,0.00,0,Wunderground v.1.15,2013-04-01 05:30:00,
2013-04-01 01:35:00,38.3,28.3,29.77,West,274,5.0,13.0,67,0.00,,,0.00,0,Wunderground v.1.15,2013-04-01 05:35:00,
2013-04-01 01:41:00,38.2,28.2,29.77,WNW,291,6.0,13.0,67,0.00,,,0.00,0,Wunderground v.1.15,2013-04-01 05:41:00,
2013-04-01 01:46:00,38.0,28.4,29.77,WNW,294,5.0,13.0,68,0.00,,,0.00,0,Wunderground v.1.15,2013-04-01 05:46:00,
2013-04-01 01:51:00,38.1,28.5,29.78,NW,315,6.0,9.0,68,0.00,,,0.00,0,Wunderground v.1.15,2013-04-01 05:51:00,
2013-04-01 01:57:00,38.2,28.6,29.78,NW,320,8.0,13.0,68,0.00,,,0.00,0,Wunderground v.1.15,2013-04-01 05:57:00,
2013-04-01 02:02:00,38.1,28.5,29.78,NW,321,7.0,12.0,68,0.00,,,0.00,0,Wunderground v.1.15,2013-04-01 06:02:00,
2013-04-01 02:07:00,38.1,28.0,29.79,NW,308,3.0,-999.0,68,-99.99,,,0.00,,weatherlink.com 1.10,2013-04-01 06:07:00,
2013-04-01 02:13:00,37.8,28.5,29.79,West,276,5.0,12.0,69,0.00,,,0.00,0,Wunderground v.1.15,2013-04-01 06:13:00,
2013-04-01 02:19:00,37.7,28.8,29.79,West,279,5.0,12.0,70,0.00,,,0.00,0,Wunderground v.1.15,2013-04-01 06:19:00,
2013-04-01 02:24:00,37.7,28.8,29.79,WNW,286,5.0,12.0,70,0.00,,,0.00,0,Wunderground v.1.15,2013-04-01 06:24:00,
2013-04-01 02:29:00,37.6,28.7,29.79,West,264,5.0,12.0,70,0.00,,,0.00,0,Wunderground v.1.15,2013-04-01 06:29:00,
2013-04-01 02:34:00,37.4,28.9,29.80,West,274,5.0,12.0,71,0.00,,,0.00,0,Wunderground v.1.15,2013-04-01 06:34:00,
2013-04-01 02:40:00,37.3,28.8,29.80,WNW,300,5.0,12.0,71,0.00,,,0.00,0,Wunderground v.1.15,2013-04-01 06:40:00,
2013-04-01 02:46:00,37.2,29.0,29.80,WNW,290,5.0,12.0,72,0.00,,,0.00,0,Wunderground v.1.15,2013-04-01 06:46:00,
2013-04-01 02:51:00,37.2,29.0,29.80,NW,317,4.0,12.0,72,0.00,,,0.00,0,Wunderground v.1.15,2013-04-01 06:51:00,
2013-04-01 02:58:00,37.1,29.2,29.80,West,278,5.0,12.0,73,0.00,,,0.00,0,Wunderground v.1.15,2013-04-01 06:58:00,
2013-04-01 03:03:00,37.0,29.1,29.80,NW,319,4.0,12.0,73,0.00,,,0.00,0,Wunderground v.1.15,2013-04-01 07:03:00,
2013-04-01 03:09:00,37.2,29.0,29.81,North,360,6.0,14.0,72,0.00,,,0.00,0,Wunderground v.1.15,2013-04-01 07:09:00,
2013-04-01 03:14:00,37.1,28.2,29.81,NW,325,10.0,16.0,70,0.00,,,0.00,0,Wunderground v.1.15,2013-04-01 07:14:00,
2013-04-01 03:19:00,37.1,28.2,29.81,NW,306,11.0,20.0,70,0.00,,,0.00,0,Wunderground v.1.15,2013-04-01 07:19:00,
2013-04-01 03:25:00,36.8,28.3,29.81,NNW,341,8.0,12.0,71,0.00,,,0.00,0,Wunderground v.1.15,2013-04-01 07:25:00,
2013-04-01 03:30:00,36.6,28.4,29.81,NW,319,5.0,12.0,72,0.00,,,0.00,0,Wunderground v.1.15,2013-04-01 07:30:00,
2013-04-01 03:35:00,36.5,29.7,29.81,NW,315,6.0,12.0,76,0.00,,,0.00,0,Wunderground v.1.15,2013-04-01 07:35:00,
2013-04-01 03:41:00,36.4,28.6,29.82,NW,313,8.0,12.0,73,0.00,,,0.00,0,Wunderground v.1.15,2013-04-01 07:41:00,
2013-04-01 03:47:00,36.4,28.6,29.82,NW,309,7.0,12.0,73,0.00,,,0.00,0,Wunderground v.1.15,2013-04-01 07:47:00,
2013-04-01 03:53:00,36.3,28.5,29.82,WNW,296,6.0,12.0,73,0.00,,,0.00,0,Wunderground v.1.15,2013-04-01 07:53:00,
2013-04-01 03:59:00,36.2,28.4,29.82,NW,314,6.0,12.0,73,0.00,,,0.00,0,Wunderground v.1.15,2013-04-01 07:59:00,
2013-04-01 04:04:00,36.2,28.4,29.83,WNW,302,6.0,21.0,73,0.00,,,0.00,0,Wunderground v.1.15,2013-04-01 08:04:00,
2013-04-01 04:10:00,36.0,28.2,29.82,WNW,296,6.0,6.0,73,0.00,,,0.00,0,Wunderground v.1.15,2013-04-01 08:10:00,
2013-04-01 04:15:00,35.9,28.1,29.82,NW,316,5.0,21.0,73,0.00,,,0.00,0,Wunderground v.1.15,2013-04-01 08:15:00,
2013-04-01 04:20:00,35.8,28.3,29.82,NW,304,5.0,21.0,74,0.00,,,0.00,0,Wunderground v.1.15,2013-04-01 08:20:00,
2013-04-01 04:25:00,35.7,28.2,29.83,NW,306,4.0,21.0,74,0.00,,,0.00,0,Wunderground v.1.15,2013-04-01 08:25:00,
2013-04-01 04:31:00,35.7,28.2,29.83,NW,319,5.0,21.0,74,0.00,,,0.00,0,Wunderground v.1.15,2013-04-01 08:31:00,
2013-04-01 04:37:00,35.6,28.1,29.83,WNW,289,4.0,21.0,74,0.00,,,0.00,0,Wunderground v.1.15,2013-04-01 08:37:00,
2013-04-01 04:42:00,35.7,28.6,29.83,NW,317,3.0,21.0,75,0.00,,,0.00,0,Wunderground v.1.15,2013-04-01 08:42:00,
2013-04-01 04:48:00,35.6,28.5,29.84,NW,313,3.0,21.0,75,0.00,,,0.00,0,Wunderground v.1.15,2013-04-01 08:48:00,
2013-04-01 04:54:00,35.5,28.4,29.84,NW,304,4.0,21.0,75,0.00,,,0.00,0,Wunderground v.1.15,2013-04-01 08:54:00,
2013-04-01 05:00:00,35.5,28.0,29.84,NNW,333,7.0,7.0,74,0.00,,,0.00,0,Wunderground v.1.15,2013-04-01 09:00:00,
2013-04-01 05:06:00,35.4,28.3,29.85,NW,326,7.0,12.0,75,0.00,,,0.00,0,Wunderground v.1.15,2013-04-01 09:06:00,
2013-04-01 05:12:00,35.2,28.4,29.85,North,355,7.0,12.0,76,0.00,,,0.00,0,Wunderground v.1.15,2013-04-01 09:12:00,
2013-04-01 05:17:00,35.1,28.3,29.85,North,9,5.0,12.0,76,0.00,,,0.00,0,Wunderground v.1.15,2013-04-01 09:17:00,
2013-04-01 05:23:00,34.9,26.0,29.86,NNE,19,9.0,-999.0,71,-99.99,,,0.00,,weatherlink.com 1.10,2013-04-01 09:23:00,
2013-04-01 05:28:00,34.7,25.6,29.86,North,360,8.0,13.0,69,0.00,,,0.00,0,Wunderground v.1.15,2013-04-01 09:28:00,
2013-04-01 05:33:00,34.4,24.6,29.86,North,355,8.0,12.0,67,0.00,,,0.00,0,Wunderground v.1.15,2013-04-01 09:33:00,
2013-04-01 05:38:00,34.1,23.2,29.87,NNW,344,7.0,12.0,64,0.00,,,0.00,0,Wunderground v.1.15,2013-04-01 09:38:00,
2013-04-01 05:44:00,33.8,21.4,29.87,NNW,341,7.0,12.0,60,0.00,,,0.00,0,Wunderground v.1.15,2013-04-01 09:44:00,
2013-04-01 05:49:00,33.6,20.0,29.88,North,360,8.0,12.0,57,0.00,,,0.00,0,Wunderground v.1.15,2013-04-01 09:49:00,
2013-04-01 05:55:00,33.3,18.9,29.88,North,355,7.0,12.0,55,0.00,,,0.00,0,Wunderground v.1.15,2013-04-01 09:55:00,
2013-04-01 06:00:00,33.1,18.7,29.88,North,355,7.0,7.0,55,0.00,,,0.00,0,Wunderground v.1.15,2013-04-01 10:00:00,
2013-04-01 06:06:00,32.9,19.3,29.88,North,355,6.0,18.0,57,0.00,,,0.00,0,Wunderground v.1.15,2013-04-01 10:06:00,
2013-04-01 06:11:00,32.7,19.1,29.89,North,349,5.0,18.0,57,0.00,,,0.00,0,Wunderground v.1.15,2013-04-01 10:11:00,
2013-04-01 06:17:00,32.5,19.3,29.89,NNE,13,3.0,18.0,58,0.00,,,0.00,0,Wunderground v.1.15,2013-04-01 10:17:00,
2013-04-01 06:22:00,32.3,19.2,29.90,NNW,340,3.0,18.0,58,0.00,,,0.00,0,Wunderground v.1.15,2013-04-01 10:22:00,
2013-04-01 06:28:00,32.1,19.0,29.90,North,360,3.0,18.0,58,0.00,,,0.00,0,Wunderground v.1.15,2013-04-01 10:28:00,
2013-04-01 06:33:00,32.0,18.5,29.90,NNE,18,3.0,18.0,57,0.00,,,0.00,0,Wunderground v.1.15,2013-04-01 10:33:00,
2013-04-01 06:39:00,31.9,18.0,29.91,North,355,4.0,-999.0,58,-99.99,,,0.00,,weatherlink.com 1.10,2013-04-01 10:39:00,
2013-04-01 06:45:00,31.8,19.1,29.91,North,360,2.0,18.0,59,0.00,,,0.00,0,Wunderground v.1.15,2013-04-01 10:45:00,
2013-04-01 06:50:00,31.7,19.0,29.91,North,355,3.0,3.0,59,0.00,,,0.00,0,Wunderground v.1.15,2013-04-01 10:50:00,
2013-04-01 06:56:00,31.6,18.5,29.92,NNE,13,3.0,18.0,58,0.00,,,0.00,0,Wunderground v.1.15,2013-04-01 10:56:00,
2013-04-01 07:02:00,31.5,18.4,29.92,NNE,14,3.0,3.0,58,0.00,,,0.00,0,Wunderground v.1.15,2013-04-01 11:02:00,
2013-04-01 07:07:00,31.4,19.1,29.92,North,5,3.0,9.0,60,0.00,,,0.00,0,Wunderground v.1.15,2013-04-01 11:07:00,
2013-04-01 07:12:00,31.3,18.6,29.92,North,350,2.0,9.0,59,0.00,,,0.00,0,Wunderground v.1.15,2013-04-01 11:12:00,
2013-04-01 07:18:00,31.2,18.5,29.92,NNW,333,1.0,9.0,59,0.00,,,0.00,0,Wunderground v.1.15,2013-04-01 11:18:00,
2013-04-01 07:24:00,30.9,18.2,29.93,NNW,335,1.0,9.0,59,0.00,,,0.00,5,Wunderground v.1.15,2013-04-01 11:24:00,
2013-04-01 07:29:00,30.8,18.5,29.93,NNW,334,0.0,9.0,60,0.00,,,0.00,9,Wunderground v.1.15,2013-04-01 11:29:00,
2013-04-01 07:35:00,30.7,18.4,29.94,NNW,335,0.0,9.0,60,0.00,,,0.00,12,Wunderground v.1.15,2013-04-01 11:35:00,
2013-04-01 07:41:00,30.6,18.7,29.95,NW,308,0.0,9.0,61,0.00,,,0.00,16,Wunderground v.1.15,2013-04-01 11:41:00,
2013-04-01 07:47:00,30.7,18.8,29.95,NW,317,1.0,9.0,61,0.00,,,0.00,26,Wunderground v.1.15,2013-04-01 11:47:00,
2013-04-01 07:52:00,30.8,19.0,29.95,NNW,342,0.0,-999.0,61,-99.99,,,0.00,,weatherlink.com 1.10,2013-04-01 11:52:00,
2013-04-01 07:58:00,31.0,18.3,29.95,NNW,345,2.0,9.0,59,0.00,,,0.00,47,Wunderground v.1.15,2013-04-01 11:58:00,
2013-04-01 08:03:00,31.2,18.9,29.96,NNW,337,3.0,6.0,60,0.00,,,0.00,63,Wunderground v.1.15,2013-04-01 12:03:00,
2013-04-01 08:09:00,31.3,18.6,29.96,NNW,329,2.0,6.0,59,0.00,,,0.00,79,Wunderground v.1.15,2013-04-01 12:09:00,
2013-04-01 08:15:00,31.5,18.8,29.97,North,350,2.0,6.0,59,0.00,,,0.00,104,Wunderground v.1.15,2013-04-01 12:15:00,
2013-04-01 08:21:00,31.7,19.0,29.97,NNW,328,1.0,6.0,59,0.00,,,0.00,123,Wunderground v.1.15,2013-04-01 12:21:00,
2013-04-01 08:27:00,31.9,19.2,29.97,NNW,338,1.0,6.0,59,0.00,,,0.00,148,Wunderground v.1.15,2013-04-01 12:27:00,
2013-04-01 08:33:00,32.1,19.0,29.97,NW,310,0.0,6.0,58,0.00,,,0.00,169,Wunderground v.1.15,2013-04-01 12:33:00,
2013-04-01 08:38:00,32.3,18.0,29.97,NW,315,1.0,-999.0,57,-99.99,,,0.00,,weatherlink.com 1.10,2013-04-01 12:38:00,
2013-04-01 08:44:00,32.3,18.8,29.98,WNW,286,2.0,6.0,57,0.00,,,0.00,206,Wunderground v.1.15,2013-04-01 12:44:00,
2013-04-01 08:49:00,32.6,19.8,29.98,NNW,346,1.0,6.0,59,0.00,,,0.00,223,Wunderground v.1.15,2013-04-01 12:49:00,
2013-04-01 08:55:00,32.7,19.1,29.98,North,5,3.0,7.0,57,0.00,,,0.00,239,Wunderground v.1.15,2013-04-01 12:55:00,
2013-04-01 09:00:00,32.7,19.1,29.98,North,355,5.0,5.0,57,0.00,,,0.00,260,Wunderground v.1.15,2013-04-01 13:00:00,
2013-04-01 09:06:00,32.8,19.6,29.99,NNW,336,5.0,8.0,58,0.00,,,0.00,281,Wunderground v.1.15,2013-04-01 13:06:00,
2013-04-01 09:12:00,32.9,19.3,29.98,WNW,291,5.0,6.0,57,0.00,,,0.00,304,Wunderground v.1.15,2013-04-01 13:12:00,
2013-04-01 09:17:00,32.9,19.3,29.99,NNW,338,6.0,11.0,57,0.00,,,0.00,374,Wunderground v.1.15,2013-04-01 13:17:00,
2013-04-01 09:23:00,32.7,19.1,29.99,NW,315,7.0,10.0,57,0.00,,,0.00,109,Wunderground v.1.15,2013-04-01 13:23:00,
2013-04-01 09:29:00,32.9,20.1,29.99,NNW,327,6.0,10.0,59,0.00,,,0.00,309,Wunderground v.1.15,2013-04-01 13:29:00,
2013-04-01 09:35:00,33.0,19.8,29.99,North,360,7.0,9.0,58,0.00,,,0.00,450,Wunderground v.1.15,2013-04-01 13:35:00,
2013-04-01 09:41:00,33.2,19.6,29.99,NNW,343,7.0,7.0,57,0.00,,,0.00,432,Wunderground v.1.15,2013-04-01 13:41:00,
2013-04-01 09:47:00,33.4,19.4,29.99,North,5,7.0,11.0,56,0.00,,,0.00,469,Wunderground v.1.15,2013-04-01 13:47:00,
2013-04-01 09:52:00,33.5,19.0,29.99,NW,321,7.0,9.0,55,0.00,,,0.00,146,Wunderground v.1.15,2013-04-01 13:52:00,
2013-04-01 09:57:00,33.5,19.5,29.99,West,271,7.0,10.0,56,0.00,,,0.00,513,Wunderground v.1.15,2013-04-01 13:57:00,
2013-04-01 10:03:00,33.7,19.7,29.99,NW,311,7.0,19.0,56,0.00,,,0.00,422,Wunderground v.1.15,2013-04-01 14:03:00,
2013-04-01 10:09:00,33.6,19.1,30.00,NNW,348,9.0,19.0,55,0.00,,,0.00,218,Wunderground v.1.15,2013-04-01 14:09:00,
2013-04-01 10:14:00,33.4,18.9,30.00,North,360,10.0,14.0,55,0.00,,,0.00,686,Wunderground v.1.15,2013-04-01 14:14:00,
2013-04-01 10:19:00,33.9,19.4,30.00,NW,325,8.0,14.0,55,0.00,,,0.00,251,Wunderground v.1.15,2013-04-01 14:19:00,
2013-04-01 10:24:00,34.1,19.0,30.00,NW,307,4.0,-999.0,55,-99.99,,,0.00,,weatherlink.com 1.10,2013-04-01 14:24:00,
2013-04-01 10:29:00,34.1,18.7,30.00,NNW,340,9.0,14.0,53,0.00,,,0.00,225,Wunderground v.1.15,2013-04-01 14:29:00,
2013-04-01 10:35:00,33.9,19.4,30.00,NW,316,10.0,14.0,55,0.00,,,0.00,288,Wunderground v.1.15,2013-04-01 14:35:00,
2013-04-01 10:41:00,34.0,19.1,30.01,WNW,302,8.0,14.0,54,0.00,,,0.00,327,Wunderground v.1.15,2013-04-01 14:41:00,
2013-04-01 10:47:00,34.0,19.1,30.01,NW,315,9.0,14.0,54,0.00,,,0.00,323,Wunderground v.1.15,2013-04-01 14:47:00,
2013-04-01 10:52:00,34.1,19.6,30.01,WNW,300,9.0,14.0,55,0.00,,,0.00,330,Wunderground v.1.15,2013-04-01 14:52:00,
2013-04-01 10:58:00,34.2,19.3,30.01,NNW,332,9.0,14.0,54,0.00,,,0.00,858,Wunderground v.1.15,2013-04-01 14:58:00,
2013-04-01 11:04:00,34.4,19.0,30.01,West,269,9.0,20.0,53,0.00,,,0.00,306,Wunderground v.1.15,2013-04-01 15:04:00,
2013-04-01 11:09:00,34.5,18.7,30.01,NNW,338,8.0,20.0,52,0.00,,,0.00,225,Wunderground v.1.15,2013-04-01 15:09:00,
2013-04-01 11:14:00,34.6,18.8,30.01,WNW,285,9.0,20.0,52,0.00,,,0.00,237,Wunderground v.1.15,2013-04-01 15:14:00,
2013-04-01 11:20:00,34.9,18.1,30.01,NW,321,10.0,20.0,50,0.00,,,0.00,195,Wunderground v.1.15,2013-04-01 15:20:00,
2013-04-01 11:26:00,35.0,18.2,30.02,West,265,10.0,20.0,50,0.00,,,0.00,860,Wunderground v.1.15,2013-04-01 15:26:00,
2013-04-01 11:32:00,35.5,18.7,30.01,North,9,10.0,20.0,50,0.00,,,0.00,860,Wunderground v.1.15,2013-04-01 15:32:00,
2013-04-01 11:38:00,35.0,16.8,30.02,NW,306,10.0,20.0,47,0.00,,,0.00,214,Wunderground v.1.15,2013-04-01 15:38:00,
2013-04-01 11:43:00,35.6,16.8,30.02,WNW,302,9.0,20.0,46,0.00,,,0.00,807,Wunderground v.1.15,2013-04-01 15:43:00,
2013-04-01 11:49:00,36.0,17.2,30.02,WNW,300,11.0,20.0,46,0.00,,,0.00,914,Wunderground v.1.15,2013-04-01 15:49:00,
2013-04-01 11:54:00,35.6,17.3,30.02,WNW,303,13.0,20.0,47,0.00,,,0.00,339,Wunderground v.1.15,2013-04-01 15:54:00,
2013-04-01 12:00:00,36.5,18.2,30.02,West,271,9.0,12.0,47,0.00,,,0.00,308,Wunderground v.1.15,2013-04-01 16:00:00,
2013-04-01 12:07:00,36.0,17.0,30.02,NW,315,12.0,-999.0,47,-99.99,,,0.00,,weatherlink.com 1.10,2013-04-01 16:07:00,
2013-04-01 12:13:00,36.5,18.2,30.02,NNW,344,9.0,20.0,47,0.00,,,0.00,1005,Wunderground v.1.15,2013-04-01 16:13:00,
2013-04-01 12:19:00,35.7,16.4,30.03,NNW,333,8.0,20.0,45,0.00,,,0.00,237,Wunderground v.1.15,2013-04-01 16:19:00,
2013-04-01 12:25:00,35.8,17.0,30.03,West,276,10.0,20.0,46,0.00,,,0.00,1092,Wunderground v.1.15,2013-04-01 16:25:00,
2013-04-01 12:31:00,36.2,17.4,30.03,WNW,295,10.0,20.0,46,0.00,,,0.00,969,Wunderground v.1.15,2013-04-01 16:31:00,
2013-04-01 12:36:00,37.1,17.7,30.03,WSW,252,11.0,20.0,45,0.00,,,0.00,1083,Wunderground v.1.15,2013-04-01 16:36:00,
2013-04-01 12:42:00,37.1,17.7,30.02,West,273,10.0,20.0,45,0.00,,,0.00,388,Wunderground v.1.15,2013-04-01 16:42:00,
2013-04-01 12:48:00,37.2,17.3,30.03,WNW,298,10.0,20.0,44,0.00,,,0.00,1106,Wunderground v.1.15,2013-04-01 16:48:00,
2013-04-01 12:54:00,37.9,19.9,30.03,NW,304,10.0,20.0,48,0.00,,,0.00,1118,Wunderground v.1.15,2013-04-01 16:54:00,
2013-04-01 12:59:00,37.0,16.0,30.02,West,273,8.0,20.0,42,0.00,,,0.00,318,Wunderground v.1.15,2013-04-01 16:59:00,
2013-04-01 13:05:00,36.8,16.4,30.02,West,269,10.0,23.0,43,0.00,,,0.00,318,Wunderground v.1.15,2013-04-01 17:05:00,
2013-04-01 13:10:00,36.9,17.0,30.02,WNW,294,8.0,8.0,44,0.00,,,0.00,385,Wunderground v.1.15,2013-04-01 17:10:00,
2013-04-01 13:16:00,36.9,16.5,30.03,NW,304,8.0,23.0,43,0.00,,,0.00,1007,Wunderground v.1.15,2013-04-01 17:16:00,
2013-04-01 13:22:00,36.6,15.0,30.02,West,277,11.0,-999.0,42,-99.99,,,0.00,,weatherlink.com 1.10,2013-04-01 17:22:00,
2013-04-01 13:27:00,37.0,15.5,30.02,WNW,302,10.0,23.0,41,0.00,,,0.00,241,Wunderground v.1.15,2013-04-01 17:27:00,
2013-04-01 13:33:00,37.5,16.5,30.02,WNW,291,8.0,23.0,42,0.00,,,0.00,1120,Wunderground v.1.15,2013-04-01 17:33:00,
2013-04-01 13:38:00,38.0,16.9,30.03,WSW,250,9.0,23.0,42,0.00,,,0.00,264,Wunderground v.1.15,2013-04-01 17:38:00,
2013-04-01 13:44:00,37.8,16.2,30.03,WNW,283,12.0,23.0,41,0.00,,,0.00,1000,Wunderground v.1.15,2013-04-01 17:44:00,
2013-04-01 13:49:00,37.8,16.2,30.02,West,261,11.0,23.0,41,0.00,,,0.00,984,Wunderground v.1.15,2013-04-01 17:49:00,
2013-04-01 13:55:00,38.4,16.1,30.03,WSW,254,12.0,23.0,40,0.00,,,0.00,976,Wunderground v.1.15,2013-04-01 17:55:00,
2013-04-01 14:00:00,38.3,15.5,30.03,WNW,295,13.0,13.0,39,0.00,,,0.00,969,Wunderground v.1.15,2013-04-01 18:00:00,
2013-04-01 14:06:00,38.7,17.5,30.03,NW,323,12.0,21.0,42,0.00,,,0.00,981,Wunderground v.1.15,2013-04-01 18:06:00,
2013-04-01 14:11:00,37.7,16.1,30.02,NNW,331,12.0,12.0,41,0.00,,,0.00,944,Wunderground v.1.15,2013-04-01 18:11:00,
2013-04-01 14:17:00,39.3,16.4,30.03,West,264,11.0,21.0,39,0.00,,,0.00,958,Wunderground v.1.15,2013-04-01 18:17:00,
2013-04-01 14:23:00,38.2,14.8,30.03,North,355,11.0,21.0,38,0.00,,,0.00,947,Wunderground v.1.15,2013-04-01 18:23:00,
2013-04-01 14:29:00,38.9,14.8,30.03,NNE,20,12.0,21.0,37,0.00,,,0.00,1092,Wunderground v.1.15,2013-04-01 18:29:00,
2013-04-01 14:34:00,38.9,15.4,30.03,NW,319,12.0,21.0,38,0.00,,,0.00,1027,Wunderground v.1.15,2013-04-01 18:34:00,
2013-04-01 14:39:00,38.7,15.8,30.03,NW,314,12.0,21.0,39,0.00,,,0.00,1027,Wunderground v.1.15,2013-04-01 18:39:00,
2013-04-01 14:45:00,37.7,14.3,30.03,West,276,11.0,21.0,38,0.00,,,0.00,1002,Wunderground v.1.15,2013-04-01 18:45:00,
2013-04-01 14:50:00,38.8,16.5,30.03,NW,311,10.0,21.0,40,0.00,,,0.00,1060,Wunderground v.1.15,2013-04-01 18:50:00,
2013-04-01 14:56:00,38.0,15.2,30.03,NW,316,9.0,21.0,39,0.00,,,0.00,243,Wunderground v.1.15,2013-04-01 18:56:00,
2013-04-01 15:01:00,37.7,15.5,30.03,NW,304,10.0,28.0,40,0.00,,,0.00,311,Wunderground v.1.15,2013-04-01 19:01:00,
2013-04-01 15:07:00,37.5,14.2,30.03,NW,313,10.0,28.0,38,0.00,,,0.00,251,Wunderground v.1.15,2013-04-01 19:07:00,
2013-04-01 15:12:00,38.9,17.2,30.03,West,273,11.0,28.0,41,0.00,,,0.00,1023,Wunderground v.1.15,2013-04-01 19:12:00,
2013-04-01 15:18:00,38.9,16.0,30.03,NW,306,12.0,28.0,39,0.00,,,0.00,684,Wunderground v.1.15,2013-04-01 19:18:00,
2013-04-01 15:24:00,38.7,16.4,30.03,NW,314,11.0,28.0,40,0.00,,,0.00,976,Wunderground v.1.15,2013-04-01 19:24:00,
2013-04-01 15:30:00,38.9,16.0,30.03,West,272,9.0,9.0,39,0.00,,,0.00,965,Wunderground v.1.15,2013-04-01 19:30:00,
2013-04-01 15:35:00,39.0,16.1,30.03,WNW,284,10.0,28.0,39,0.00,,,0.00,933,Wunderground v.1.15,2013-04-01 19:35:00,
2013-04-01 15:40:00,38.3,15.5,30.03,West,273,11.0,28.0,39,0.00,,,0.00,923,Wunderground v.1.15,2013-04-01 19:40:00,
2013-04-01 15:45:00,37.9,15.1,30.03,WNW,302,12.0,28.0,39,0.00,,,0.00,209,Wunderground v.1.15,2013-04-01 19:45:00,
2013-04-01 15:51:00,37.7,14.3,30.03,NW,315,11.0,28.0,38,0.00,,,0.00,902,Wunderground v.1.15,2013-04-01 19:51:00,
2013-04-01 15:57:00,38.8,15.9,30.04,NW,318,10.0,28.0,39,0.00,,,0.00,904,Wunderground v.1.15,2013-04-01 19:57:00,
2013-04-01 16:02:00,39.8,16.2,30.04,NNW,331,9.0,23.0,38,0.00,,,0.00,886,Wunderground v.1.15,2013-04-01 20:02:00,
2013-04-01 16:07:00,38.4,15.6,30.04,NW,310,11.0,23.0,39,0.00,,,0.00,413,Wunderground v.1.15,2013-04-01 20:07:00,
2013-04-01 16:14:00,37.9,14.5,30.04,NNW,328,10.0,23.0,38,0.00,,,0.00,313,Wunderground v.1.15,2013-04-01 20:14:00,
2013-04-01 16:20:00,37.8,14.4,30.04,North,350,11.0,11.0,38,0.00,,,0.00,795,Wunderground v.1.15,2013-04-01 20:20:00,
2013-04-01 16:26:00,38.5,15.7,30.04,West,265,10.0,23.0,39,0.00,,,0.00,807,Wunderground v.1.15,2013-04-01 20:26:00,
2013-04-01 16:31:00,38.5,15.7,30.05,WSW,258,12.0,23.0,39,0.00,,,0.00,729,Wunderground v.1.15,2013-04-01 20:31:00,
2013-04-01 16:37:00,38.8,15.0,30.04,WNW,294,10.0,-999.0,38,-99.99,,,0.00,,weatherlink.com 1.10,2013-04-01 20:37:00,
2013-04-01 16:42:00,38.6,14.5,30.05,West,279,10.0,13.0,37,0.00,,,0.00,684,Wunderground v.1.15,2013-04-01 20:42:00,
2013-04-01 16:47:00,38.5,15.1,30.05,WNW,294,10.0,23.0,38,0.00,,,0.00,642,Wunderground v.1.15,2013-04-01 20:47:00,
2013-04-01 16:53:00,38.1,13.5,30.05,NW,310,11.0,23.0,36,0.00,,,0.00,657,Wunderground v.1.15,2013-04-01 20:53:00,
2013-04-01 16:59:00,38.3,14.3,30.05,SW,225,12.0,23.0,37,0.00,,,0.00,640,Wunderground v.1.15,2013-04-01 20:59:00,
2013-04-01 17:04:00,38.6,15.1,30.05,NW,314,12.0,20.0,38,0.00,,,0.00,629,Wunderground v.1.15,2013-04-01 21:04:00,
2013-04-01 17:09:00,38.2,14.2,30.05,WNW,294,11.0,20.0,37,0.00,,,0.00,591,Wunderground v.1.15,2013-04-01 21:09:00,
2013-04-01 17:15:00,38.2,14.8,30.05,NE,36,10.0,20.0,38,0.00,,,0.00,566,Wunderground v.1.15,2013-04-01 21:15:00,
2013-04-01 17:20:00,38.2,12.9,30.05,WNW,299,10.0,10.0,35,0.00,,,0.00,548,Wunderground v.1.15,2013-04-01 21:20:00,
2013-04-01 17:26:00,38.1,13.5,30.05,WNW,283,11.0,20.0,36,0.00,,,0.00,531,Wunderground v.1.15,2013-04-01 21:26:00,
2013-04-01 17:32:00,38.2,14.8,30.06,West,281,11.0,20.0,38,0.00,,,0.00,543,Wunderground v.1.15,2013-04-01 21:32:00,
2013-04-01 17:37:00,38.2,14.2,30.05,WSW,256,11.0,20.0,37,0.00,,,0.00,526,Wunderground v.1.15,2013-04-01 21:37:00,
2013-04-01 17:43:00,38.4,13.7,30.05,NW,321,10.0,20.0,36,0.00,,,0.00,476,Wunderground v.1.15,2013-04-01 21:43:00,
2013-04-01 17:48:00,37.8,13.8,30.06,NW,321,11.0,20.0,37,0.00,,,0.00,450,Wunderground v.1.15,2013-04-01 21:48:00,
2013-04-01 17:53:00,37.5,12.9,30.06,West,267,13.0,20.0,36,0.00,,,0.00,431,Wunderground v.1.15,2013-04-01 21:53:00,
2013-04-01 17:59:00,37.6,14.2,30.06,West,263,12.0,20.0,38,0.00,,,0.00,403,Wunderground v.1.15,2013-04-01 21:59:00,
2013-04-01 18:05:00,37.5,13.6,30.06,WNW,282,10.0,22.0,37,0.00,,,0.00,396,Wunderground v.1.15,2013-04-01 22:05:00,
2013-04-01 18:11:00,37.2,13.9,30.06,NW,316,8.0,22.0,38,0.00,,,0.00,366,Wunderground v.1.15,2013-04-01 22:11:00,
2013-04-01 18:17:00,37.1,13.2,30.06,WNW,295,9.0,22.0,37,0.00,,,0.00,339,Wunderground v.1.15,2013-04-01 22:17:00,
2013-04-01 18:23:00,37.2,12.0,30.06,NW,307,13.0,-999.0,36,-99.99,,,0.00,,weatherlink.com 1.10,2013-04-01 22:23:00,
2013-04-01 18:28:00,37.1,13.2,30.06,WSW,257,11.0,22.0,37,0.00,,,0.00,302,Wunderground v.1.15,2013-04-01 22:28:00,
2013-04-01 18:34:00,37.0,13.1,30.06,WNW,296,11.0,22.0,37,0.00,,,0.00,278,Wunderground v.1.15,2013-04-01 22:34:00,
2013-04-01 18:41:00,37.2,13.3,30.06,WNW,290,9.0,22.0,37,0.00,,,0.00,244,Wunderground v.1.15,2013-04-01 22:41:00,
2013-04-01 18:47:00,36.9,14.2,30.06,NNW,342,9.0,22.0,39,0.00,,,0.00,223,Wunderground v.1.15,2013-04-01 22:47:00,
2013-04-01 18:52:00,36.9,13.6,30.06,West,274,9.0,22.0,38,0.00,,,0.00,206,Wunderground v.1.15,2013-04-01 22:52:00,
2013-04-01 18:58:00,36.8,14.1,30.06,WNW,284,10.0,22.0,39,0.00,,,0.00,176,Wunderground v.1.15,2013-04-01 22:58:00,
2013-04-01 19:03:00,36.9,13.6,30.07,WNW,298,8.0,23.0,38,0.00,,,0.00,156,Wunderground v.1.15,2013-04-01 23:03:00,
2013-04-01 19:09:00,36.5,13.9,30.07,NW,310,9.0,23.0,39,0.00,,,0.00,132,Wunderground v.1.15,2013-04-01 23:09:00,
2013-04-01 19:14:00,36.3,13.7,30.07,NW,311,9.0,23.0,39,0.00,,,0.00,113,Wunderground v.1.15,2013-04-01 23:14:00,
2013-04-01 19:20:00,36.2,13.6,30.07,NNW,331,8.0,8.0,39,0.00,,,0.00,91,Wunderground v.1.15,2013-04-01 23:20:00,
2013-04-01 19:25:00,36.1,14.1,30.07,NW,319,7.0,23.0,40,0.00,,,0.00,76,Wunderground v.1.15,2013-04-01 23:25:00,
2013-04-01 19:30:00,36.0,13.4,30.07,NW,318,8.0,23.0,39,0.00,,,0.00,60,Wunderground v.1.15,2013-04-01 23:30:00,
2013-04-01 19:35:00,35.8,13.2,30.07,WNW,297,10.0,23.0,39,0.00,,,0.00,49,Wunderground v.1.15,2013-04-01 23:35:00,
2013-04-01 19:41:00,35.6,13.6,30.07,NW,320,11.0,23.0,40,0.00,,,0.00,32,Wunderground v.1.15,2013-04-01 23:41:00,
2013-04-01 19:46:00,35.4,13.4,30.07,NNW,327,9.0,23.0,40,0.00,,,0.00,21,Wunderground v.1.15,2013-04-01 23:46:00,
2013-04-01 19:52:00,35.1,13.0,30.07,NNW,329,6.0,-999.0,41,-99.99,,,0.00,,weatherlink.com 1.10,2013-04-01 23:52:00,
2013-04-01 19:57:00,34.9,13.5,30.08,NW,325,7.0,23.0,41,0.00,,,0.00,12,Wunderground v.1.15,2013-04-01 23:57:00,
2013-04-01 20:03:00,34.7,13.4,30.08,NW,323,7.0,18.0,41,0.00,,,0.00,7,Wunderground v.1.15,2013-04-02 00:03:00,
2013-04-01 20:08:00,34.6,14.4,30.08,WNW,294,6.0,18.0,43,0.00,,,0.00,5,Wunderground v.1.15,2013-04-02 00:08:00,
2013-04-01 20:14:00,34.3,14.1,30.08,NW,315,5.0,18.0,43,0.00,,,0.00,0,Wunderground v.1.15,2013-04-02 00:14:00,
2013-04-01 20:19:00,34.1,13.9,30.08,WNW,302,5.0,18.0,43,0.00,,,0.00,0,Wunderground v.1.15,2013-04-02 00:19:00,
2013-04-01 20:25:00,33.9,14.0,30.08,NNW,328,9.0,-999.0,44,-99.99,,,0.00,,weatherlink.com 1.10,2013-04-02 00:25:00,
2013-04-01 20:30:00,33.8,14.7,30.08,NNW,342,6.0,6.0,45,0.00,,,0.00,0,Wunderground v.1.15,2013-04-02 00:30:00,
2013-04-01 20:36:00,33.6,14.5,30.08,WNW,285,6.0,18.0,45,0.00,,,0.00,0,Wunderground v.1.15,2013-04-02 00:36:00,
2013-04-01 20:41:00,33.5,14.4,30.09,NNW,331,5.0,18.0,45,0.00,,,0.00,0,Wunderground v.1.15,2013-04-02 00:41:00,
2013-04-01 20:47:00,33.3,15.2,30.09,North,351,5.0,18.0,47,0.00,,,0.00,0,Wunderground v.1.15,2013-04-02 00:47:00,
2013-04-01 20:53:00,33.0,15.0,30.09,NW,315,3.0,-999.0,48,-99.99,,,0.00,,weatherlink.com 1.10,2013-04-02 00:53:00,
2013-04-01 20:59:00,32.8,15.2,30.09,West,272,5.0,18.0,48,0.00,,,0.00,0,Wunderground v.1.15,2013-04-02 00:59:00,
2013-04-01 21:04:00,32.6,15.5,30.09,NW,321,5.0,14.0,49,0.00,,,0.00,0,Wunderground v.1.15,2013-04-02 01:04:00,
2013-04-01 21:10:00,32.4,15.8,30.09,NNW,338,4.0,4.0,50,0.00,,,0.00,0,Wunderground v.1.15,2013-04-02 01:10:00,
2013-04-01 21:16:00,32.1,16.0,30.10,NNW,330,2.0,14.0,51,0.00,,,0.00,0,Wunderground v.1.15,2013-04-02 01:16:00,
2013-04-01 21:22:00,32.0,15.9,30.10,NNW,341,2.0,14.0,51,0.00,,,0.00,0,Wunderground v.1.15,2013-04-02 01:22:00,
2013-04-01 21:28:00,31.8,15.7,30.10,NNW,344,3.0,14.0,51,0.00,,,0.00,0,Wunderground v.1.15,2013-04-02 01:28:00,
2013-04-01 21:33:00,31.7,16.1,30.10,North,349,3.0,14.0,52,0.00,,,0.00,0,Wunderground v.1.15,2013-04-02 01:33:00,
2013-04-01 21:39:00,31.6,16.0,30.11,NNW,339,3.0,14.0,52,0.00,,,0.00,0,Wunderground v.1.15,2013-04-02 01:39:00,
2013-04-01 21:45:00,31.4,15.3,30.11,NNW,338,3.0,14.0,51,0.00,,,0.00,0,Wunderground v.1.15,2013-04-02 01:45:00,
2013-04-01 21:50:00,31.3,15.7,30.11,NNW,334,3.0,3.0,52,0.00,,,0.00,0,Wunderground v.1.15,2013-04-02 01:50:00,
2013-04-01 21:56:00,31.2,16.0,30.11,NNW,338,3.0,14.0,53,0.00,,,0.00,0,Wunderground v.1.15,2013-04-02 01:56:00,
2013-04-01 22:01:00,31.0,16.3,30.11,NNW,346,3.0,9.0,54,0.00,,,0.00,0,Wunderground v.1.15,2013-04-02 02:01:00,
2013-04-01 22:07:00,30.9,16.0,30.11,NNW,346,2.0,-999.0,55,-99.99,,,0.00,,weatherlink.com 1.10,2013-04-02 02:07:00,
2013-04-01 22:13:00,30.6,16.3,30.12,NNW,347,1.0,9.0,55,0.00,,,0.00,0,Wunderground v.1.15,2013-04-02 02:13:00,
2013-04-01 22:18:00,30.5,16.2,30.12,NNW,348,2.0,9.0,55,0.00,,,0.00,0,Wunderground v.1.15,2013-04-02 02:18:00,
2013-04-01 22:24:00,30.4,16.0,30.12,NNW,346,0.0,-999.0,55,-99.99,,,0.00,,weatherlink.com 1.10,2013-04-02 02:24:00,
2013-04-01 22:29:00,30.3,16.0,30.12,North,349,1.0,9.0,55,0.00,,,0.00,0,Wunderground v.1.15,2013-04-02 02:29:00,
2013-04-01 22:35:00,30.2,16.0,30.12,North,355,1.0,9.0,55,0.00,,,0.00,0,Wunderground v.1.15,2013-04-02 02:35:00,
2013-04-01 22:41:00,30.1,16.3,30.12,NNW,348,1.0,9.0,56,0.00,,,0.00,0,Wunderground v.1.15,2013-04-02 02:41:00,
2013-04-01 22:47:00,29.9,16.1,30.12,North,355,1.0,9.0,56,0.00,,,0.00,0,Wunderground v.1.15,2013-04-02 02:47:00,
2013-04-01 22:52:00,29.8,16.0,30.12,North,355,0.0,-999.0,57,-99.99,,,0.00,,weatherlink.com 1.10,2013-04-02 02:52:00,
2013-04-01 22:57:00,29.7,16.3,30.13,North,355,0.0,9.0,57,0.00,,,0.00,0,Wunderground v.1.15,2013-04-02 02:57:00,
2013-04-01 23:03:00,29.6,15.8,30.12,North,350,0.0,6.0,56,0.00,,,0.00,0,Wunderground v.1.15,2013-04-02 03:03:00,
2013-04-01 23:08:00,29.5,16.0,30.13,North,350,0.0,-999.0,58,-99.99,,,0.00,,weatherlink.com 1.10,2013-04-02 03:08:00,
2013-04-01 23:13:00,29.3,16.3,30.13,North,351,0.0,6.0,58,0.00,,,0.00,0,Wunderground v.1.15,2013-04-02 03:13:00,
2013-04-01 23:19:00,29.3,16.3,30.13,North,351,0.0,6.0,58,0.00,,,0.00,0,Wunderground v.1.15,2013-04-02 03:19:00,
2013-04-01 23:24:00,29.2,16.0,30.13,North,350,0.0,-999.0,58,-99.99,,,0.00,,weatherlink.com 1.10,2013-04-02 03:24:00,
2013-04-01 23:29:00,29.0,16.1,30.13,North,351,0.0,6.0,58,0.00,,,0.00,0,Wunderground v.1.15,2013-04-02 03:29:00,
2013-04-01 23:35:00,28.9,16.4,30.13,North,351,0.0,6.0,59,0.00,,,0.00,0,Wunderground v.1.15,2013-04-02 03:35:00,
2013-04-01 23:41:00,28.7,16.6,30.13,North,351,0.0,6.0,60,0.00,,,0.00,0,Wunderground v.1.15,2013-04-02 03:41:00,
2013-04-01 23:47:00,28.6,16.1,30.13,North,351,0.0,6.0,59,0.00,,,0.00,0,Wunderground v.1.15,2013-04-02 03:47:00,
2013-04-01 23:53:00,28.5,15.0,30.13,North,350,0.0,-999.0,58,-99.99,,,0.00,,weatherlink.com 1.10,2013-04-02 03:53:00,
2013-04-01 23:58:00,28.3,15.4,30.13,North,350,0.0,6.0,58,0.00,,,0.00,0,Wunderground v.1.15,2013-04-02 03:58:00,